Time;durP1;ratioP1;P1;durP2;ratioP2;P2;SDS_P1;SDS_P2;PMS_P1;PMS_P2;Temp;Humidity;BMP_temperature;BMP_pressure;BME280_temperature;BME280_humidity;BME280_pressure;Samples;Min_cycle;Max_cycle;Signal;HPM_P1;HPM_P2
2021/12/20 00:01:53;;;;;;;82.70;16.15;;;;;;;;;;5115764;28;20059;-91
2021/12/20 00:04:20;;;;;;;103.00;15.57;;;;;;;;;;5115874;28;20038;-89
2021/12/20 00:06:46;;;;;;;84.03;15.68;;;;;;;;;;5115555;28;20114;-90
2021/12/20 00:09:12;;;;;;;94.70;15.13;;;;;;;;;;5115567;28;20035;-90
2021/12/20 00:11:39;;;;;;;96.45;16.67;;;;;;;;;;5115418;28;20440;-90
2021/12/20 00:14:05;;;;;;;92.78;17.20;;;;;;;;;;5115029;28;20114;-89
2021/12/20 00:16:32;;;;;;;91.68;17.80;;;;;;;;;;5115514;28;20115;-89
2021/12/20 00:18:58;;;;;;;89.18;16.08;;;;;;;;;;5115526;28;20043;-90
2021/12/20 00:21:24;;;;;;;115.22;16.10;;;;;;;;;;5115435;28;20426;-91
2021/12/20 00:23:51;;;;;;;89.95;16.08;;;;;;;;;;5115360;28;20505;-92
2021/12/20 00:26:17;;;;;;;111.43;18.20;;;;;;;;;;5115219;28;20031;-91
2021/12/20 00:28:43;;;;;;;97.43;18.60;;;;;;;;;;5115469;28;20060;-92
2021/12/20 00:31:10;;;;;;;116.50;20.65;;;;;;;;;;5115231;28;20023;-92
2021/12/20 00:33:36;;;;;;;102.30;19.67;;;;;;;;;;5115232;28;20110;-92
2021/12/20 00:36:06;;;;;;;104.80;18.20;;;;;;;;;;5115126;28;20035;-92
2021/12/20 00:41:17;;;;;;;99.07;22.38;;;;;;;;;;5116578;28;20084;-92
2021/12/20 00:43:44;;;;;;;123.25;26.25;;;;;;;;;;5115099;28;20114;-91
2021/12/20 00:46:10;;;;;;;148.20;27.55;;;;;;;;;;5114909;28;20028;-93
2021/12/20 00:48:40;;;;;;;130.95;29.10;;;;;;;;;;5115079;28;20066;-92
2021/12/20 00:51:07;;;;;;;119.57;27.80;;;;;;;;;;5115839;28;20028;-91
2021/12/20 00:53:33;;;;;;;113.68;23.33;;;;;;;;;;5114736;28;20032;-93
2021/12/20 00:56:24;;;;;;;127.82;22.35;;;;;;;;;;5114791;28;20482;-92
2021/12/20 00:58:59;;;;;;;110.95;23.60;;;;;;;;;;5115064;28;20024;-93
2021/12/20 01:01:26;;;;;;;101.63;20.95;;;;;;;;;;5115382;28;20032;-93
2021/12/20 01:03:59;;;;;;;112.05;21.00;;;;;;;;;;5114901;28;20035;-93
2021/12/20 01:06:26;;;;;;;172.70;45.90;;;;;;;;;;5115357;28;20428;-93
2021/12/20 01:08:55;;;;;;;177.45;47.03;;;;;;;;;;5115194;28;20114;-91
2021/12/20 01:11:26;;;;;;;159.05;39.85;;;;;;;;;;5115870;28;20466;-93
2021/12/20 01:13:53;;;;;;;142.68;34.35;;;;;;;;;;5115191;28;20032;-92
2021/12/20 01:16:29;;;;;;;138.82;32.85;;;;;;;;;;5114809;28;20032;-94
2021/12/20 01:18:59;;;;;;;141.25;27.92;;;;;;;;;;5116055;28;20035;-94
2021/12/20 01:21:26;;;;;;;112.60;20.92;;;;;;;;;;5114690;28;20480;-92
2021/12/20 01:23:54;;;;;;;111.35;22.63;;;;;;;;;;5115690;28;20390;-93
2021/12/20 01:26:20;;;;;;;102.50;21.80;;;;;;;;;;5113533;28;20058;-92
2021/12/20 01:28:46;;;;;;;116.00;25.83;;;;;;;;;;5114584;28;20028;-93
2021/12/20 01:31:22;;;;;;;131.27;25.75;;;;;;;;;;5114667;28;20478;-93
2021/12/20 01:33:48;;;;;;;111.63;24.60;;;;;;;;;;5114157;28;20032;-92
2021/12/20 01:36:15;;;;;;;117.93;28.20;;;;;;;;;;5114248;28;20069;-93
2021/12/20 01:38:43;;;;;;;143.80;32.83;;;;;;;;;;5114174;28;20124;-94
2021/12/20 01:41:10;;;;;;;136.60;31.30;;;;;;;;;;5113990;28;20032;-93
2021/12/20 01:43:37;;;;;;;129.50;27.15;;;;;;;;;;5113854;28;20474;-93
2021/12/20 01:46:04;;;;;;;137.80;27.55;;;;;;;;;;5113907;28;20028;-93
2021/12/20 01:48:31;;;;;;;134.55;30.00;;;;;;;;;;5113902;28;20050;-93
2021/12/20 01:53:41;;;;;;;118.32;23.88;;;;;;;;;;5115103;28;20032;-93
2021/12/20 01:56:08;;;;;;;119.18;21.30;;;;;;;;;;5113799;28;20028;-93
2021/12/20 02:01:38;;;;;;;91.53;18.23;;;;;;;;;;5115186;28;20109;-93
2021/12/20 02:07:08;;;;;;;90.45;20.05;;;;;;;;;;5114947;28;20038;-93
2021/12/20 02:09:34;;;;;;;86.05;17.95;;;;;;;;;;5113667;28;20024;-92
2021/12/20 02:12:00;;;;;;;102.15;19.65;;;;;;;;;;5113349;28;20050;-93
2021/12/20 02:14:33;;;;;;;84.93;18.08;;;;;;;;;;5113719;28;20032;-93
2021/12/20 02:16:59;;;;;;;92.47;18.70;;;;;;;;;;5113546;28;20066;-93
2021/12/20 02:19:27;;;;;;;78.68;17.00;;;;;;;;;;5113464;28;20028;-93
2021/12/20 02:21:57;;;;;;;88.40;18.52;;;;;;;;;;5113568;28;20077;-92
2021/12/20 02:24:23;;;;;;;106.07;18.27;;;;;;;;;;5115121;28;20394;-92
2021/12/20 02:26:50;;;;;;;99.45;17.85;;;;;;;;;;5113638;28;20432;-92
2021/12/20 02:29:26;;;;;;;95.40;20.05;;;;;;;;;;5113296;28;20134;-92
2021/12/20 02:37:27;;;;;;;114.75;18.45;;;;;;;;;;5117151;28;20038;-93
2021/12/20 02:39:54;;;;;;;83.05;17.50;;;;;;;;;;5117377;28;20068;-93
2021/12/20 02:42:26;;;;;;;98.22;20.00;;;;;;;;;;5117377;28;20054;-94
2021/12/20 02:45:11;;;;;;;87.93;18.05;;;;;;;;;;5117376;28;20038;-94
2021/12/20 02:47:39;;;;;;;92.70;20.42;;;;;;;;;;5118456;28;20040;-93
2021/12/20 02:50:06;;;;;;;89.88;17.50;;;;;;;;;;5117300;28;20043;-92
2021/12/20 02:52:32;;;;;;;74.38;16.02;;;;;;;;;;5117259;28;20498;-92
2021/12/20 02:54:58;;;;;;;70.25;15.77;;;;;;;;;;5117143;28;20034;-91
2021/12/20 02:57:25;;;;;;;69.80;15.38;;;;;;;;;;5116967;28;20034;-91
2021/12/20 02:59:51;;;;;;;60.05;16.05;;;;;;;;;;5117069;28;20032;-92
2021/12/20 03:02:18;;;;;;;52.53;14.23;;;;;;;;;;5117226;28;20227;-91
2021/12/20 03:04:45;;;;;;;45.75;14.18;;;;;;;;;;5116918;28;20494;-92
2021/12/20 03:07:15;;;;;;;54.47;12.60;;;;;;;;;;5116768;28;20047;-92
2021/12/20 03:09:48;;;;;;;40.55;12.88;;;;;;;;;;5116886;28;20059;-91
2021/12/20 03:12:17;;;;;;;42.80;12.50;;;;;;;;;;5116630;28;20451;-91
2021/12/20 03:14:47;;;;;;;39.60;10.52;;;;;;;;;;5116812;28;20039;-92
2021/12/20 03:17:13;;;;;;;30.83;9.75;;;;;;;;;;5116837;28;20078;-89
2021/12/20 03:19:40;;;;;;;35.67;10.45;;;;;;;;;;5116918;28;20424;-91
2021/12/20 03:22:07;;;;;;;38.15;11.68;;;;;;;;;;5116717;28;20114;-92
2021/12/20 03:24:33;;;;;;;31.67;9.40;;;;;;;;;;5116459;28;20122;-91
2021/12/20 03:27:00;;;;;;;30.40;12.55;;;;;;;;;;5116543;28;20046;-92
2021/12/20 03:29:26;;;;;;;33.60;12.90;;;;;;;;;;5116396;28;20390;-92
2021/12/20 03:31:53;;;;;;;28.90;10.80;;;;;;;;;;5116243;28;20063;-92
2021/12/20 03:34:19;;;;;;;30.58;9.40;;;;;;;;;;5116341;28;20043;-91
2021/12/20 03:36:46;;;;;;;24.80;8.98;;;;;;;;;;5116687;28;20522;-91
2021/12/20 03:39:12;;;;;;;22.75;8.38;;;;;;;;;;5116193;28;20028;-91
2021/12/20 03:41:42;;;;;;;21.23;8.98;;;;;;;;;;5116470;28;20039;-92
2021/12/20 03:44:08;;;;;;;27.02;11.50;;;;;;;;;;5116826;28;20042;-93
2021/12/20 03:46:37;;;;;;;26.95;9.95;;;;;;;;;;5113514;28;20060;-92
2021/12/20 03:49:05;;;;;;;26.67;9.38;;;;;;;;;;5115063;28;20036;-92
2021/12/20 03:51:31;;;;;;;28.77;8.73;;;;;;;;;;5115812;28;20115;-92
2021/12/20 03:53:58;;;;;;;28.35;9.68;;;;;;;;;;5115797;28;20486;-92
2021/12/20 03:56:24;;;;;;;23.17;9.00;;;;;;;;;;5116026;28;20481;-91
2021/12/20 03:58:51;;;;;;;26.35;8.57;;;;;;;;;;5115945;28;20027;-93
2021/12/20 04:01:17;;;;;;;27.65;10.40;;;;;;;;;;5115934;28;20028;-92
2021/12/20 04:03:44;;;;;;;26.05;9.77;;;;;;;;;;5115811;28;20034;-92
2021/12/20 04:06:14;;;;;;;33.28;11.57;;;;;;;;;;5115984;28;20035;-92
2021/12/20 04:08:41;;;;;;;32.17;8.85;;;;;;;;;;5115532;28;20080;-90
2021/12/20 04:11:08;;;;;;;25.42;10.73;;;;;;;;;;5115973;28;20127;-92
2021/12/20 04:13:34;;;;;;;33.15;10.80;;;;;;;;;;5115115;28;20036;-92
2021/12/20 04:16:01;;;;;;;32.03;10.93;;;;;;;;;;5115554;28;20122;-91
2021/12/20 04:18:28;;;;;;;33.45;10.55;;;;;;;;;;5115400;28;20032;-91
2021/12/20 04:20:54;;;;;;;25.15;9.98;;;;;;;;;;5115453;28;20028;-91
2021/12/20 04:23:21;;;;;;;25.77;10.60;;;;;;;;;;5115360;28;20070;-91
2021/12/20 04:25:48;;;;;;;26.88;9.85;;;;;;;;;;5115252;28;20035;-92
2021/12/20 04:28:15;;;;;;;25.75;9.55;;;;;;;;;;5115204;28;20122;-90
2021/12/20 04:30:41;;;;;;;27.45;10.32;;;;;;;;;;5115048;28;20437;-91
2021/12/20 04:33:12;;;;;;;24.45;11.15;;;;;;;;;;5115161;28;20395;-92
2021/12/20 04:35:39;;;;;;;22.85;10.45;;;;;;;;;;5115315;28;20025;-93
2021/12/20 04:38:08;;;;;;;26.08;10.65;;;;;;;;;;5114982;28;20119;-92
2021/12/20 04:40:39;;;;;;;31.83;14.00;;;;;;;;;;5114892;28;20028;-91
2021/12/20 04:43:06;;;;;;;28.15;12.57;;;;;;;;;;5114868;28;20546;-91
2021/12/20 04:45:33;;;;;;;27.85;12.05;;;;;;;;;;5114851;28;20376;-93
2021/12/20 04:48:00;;;;;;;27.58;12.32;;;;;;;;;;5114873;28;20087;-91
2021/12/20 04:50:28;;;;;;;23.85;10.48;;;;;;;;;;5114923;28;20036;-91
2021/12/20 04:52:55;;;;;;;22.92;10.95;;;;;;;;;;5114749;28;20371;-92
2021/12/20 04:55:22;;;;;;;24.50;12.20;;;;;;;;;;5114741;28;20051;-93
2021/12/20 04:57:49;;;;;;;25.05;11.43;;;;;;;;;;5114682;28;20435;-93
2021/12/20 05:00:17;;;;;;;22.35;10.45;;;;;;;;;;5114345;28;20034;-92
2021/12/20 05:02:45;;;;;;;20.55;10.07;;;;;;;;;;5097657;28;20453;-92
2021/12/20 05:05:12;;;;;;;25.02;11.25;;;;;;;;;;5114437;28;20036;-92
2021/12/20 05:07:39;;;;;;;29.35;12.82;;;;;;;;;;5114254;28;20087;-92
2021/12/20 05:10:11;;;;;;;25.50;13.25;;;;;;;;;;5114565;28;20397;-94
2021/12/20 05:12:46;;;;;;;34.70;13.13;;;;;;;;;;5114130;28;20051;-90
2021/12/20 05:15:12;;;;;;;30.58;13.75;;;;;;;;;;5114421;28;20028;-92
2021/12/20 05:17:38;;;;;;;34.25;15.57;;;;;;;;;;5114465;28;20039;-92
2021/12/20 05:20:05;;;;;;;36.33;15.32;;;;;;;;;;5114407;28;20493;-93
2021/12/20 05:22:31;;;;;;;43.38;16.42;;;;;;;;;;5114285;28;20035;-93
2021/12/20 05:24:58;;;;;;;32.03;15.27;;;;;;;;;;5114239;28;20078;-91
2021/12/20 05:27:26;;;;;;;38.78;14.90;;;;;;;;;;5114029;28;20032;-93
2021/12/20 05:29:53;;;;;;;43.50;15.20;;;;;;;;;;5114213;28;20486;-93
2021/12/20 05:32:19;;;;;;;42.22;13.65;;;;;;;;;;5113853;28;20148;-93
2021/12/20 05:34:46;;;;;;;32.47;14.38;;;;;;;;;;5113992;28;20050;-92
2021/12/20 05:37:13;;;;;;;35.83;12.80;;;;;;;;;;5097337;28;20474;-92
2021/12/20 05:39:41;;;;;;;32.47;9.85;;;;;;;;;;5113868;28;20035;-93
2021/12/20 05:42:12;;;;;;;21.73;9.35;;;;;;;;;;5113784;28;20170;-93
2021/12/20 05:44:38;;;;;;;18.13;8.88;;;;;;;;;;5113893;28;20031;-94
2021/12/20 05:47:04;;;;;;;19.70;7.60;;;;;;;;;;5113832;28;20439;-92
2021/12/20 05:49:32;;;;;;;18.00;7.50;;;;;;;;;;5113841;28;20027;-90
2021/12/20 05:51:59;;;;;;;15.32;7.13;;;;;;;;;;5113566;28;20039;-93
2021/12/20 05:54:26;;;;;;;16.35;6.60;;;;;;;;;;5113785;28;20023;-93
2021/12/20 05:56:58;;;;;;;11.80;6.18;;;;;;;;;;5113849;28;20036;-94
2021/12/20 05:59:25;;;;;;;11.48;6.30;;;;;;;;;;5114183;28;20028;-94
2021/12/20 06:01:51;;;;;;;12.88;6.22;;;;;;;;;;5113725;28;20390;-93
2021/12/20 06:07:20;;;;;;;12.98;6.50;;;;;;;;;;5114990;28;20032;-93
2021/12/20 06:09:47;;;;;;;15.40;7.93;;;;;;;;;;5113773;28;20487;-94
2021/12/20 06:18:51;;;;;;;18.42;8.55;;;;;;;;;;5119503;28;20035;-93
2021/12/20 06:24:21;;;;;;;28.63;12.05;;;;;;;;;;5119132;28;20444;-93
2021/12/20 06:29:51;;;;;;;51.53;18.33;;;;;;;;;;5119218;28;20026;-91
2021/12/20 06:32:17;;;;;;;43.08;17.83;;;;;;;;;;5118744;28;20035;-93
2021/12/20 06:34:43;;;;;;;51.17;17.05;;;;;;;;;;5119844;28;20034;-88
2021/12/20 06:37:12;;;;;;;69.60;24.38;;;;;;;;;;5119201;28;20031;-87
2021/12/20 06:39:41;;;;;;;71.45;24.98;;;;;;;;;;5120403;28;20598;-89
2021/12/20 06:42:07;;;;;;;71.15;25.70;;;;;;;;;;5120487;28;20041;-92
2021/12/20 06:44:34;;;;;;;64.80;23.77;;;;;;;;;;5114055;28;20074;-91
2021/12/20 06:47:01;;;;;;;73.07;25.75;;;;;;;;;;5099258;28;20044;-87
2021/12/20 06:49:27;;;;;;;68.65;23.48;;;;;;;;;;5098878;28;20085;-91
2021/12/20 06:51:58;;;;;;;74.97;25.05;;;;;;;;;;5096356;28;20123;-87
2021/12/20 06:54:24;;;;;;;80.53;24.77;;;;;;;;;;5096575;28;20035;-88
2021/12/20 06:56:51;;;;;;;75.22;23.42;;;;;;;;;;5096585;28;20028;-88
2021/12/20 06:59:17;;;;;;;75.28;25.55;;;;;;;;;;5096572;28;20074;-88
2021/12/20 07:01:43;;;;;;;90.18;24.63;;;;;;;;;;5096675;28;20060;-87
2021/12/20 07:04:12;;;;;;;59.75;24.05;;;;;;;;;;5096643;28;20062;-91
2021/12/20 07:06:38;;;;;;;73.57;25.00;;;;;;;;;;5096434;28;20406;-90
2021/12/20 07:09:06;;;;;;;74.22;25.23;;;;;;;;;;5096613;28;20509;-90
2021/12/20 07:11:33;;;;;;;70.97;25.00;;;;;;;;;;5096384;28;20513;-92
2021/12/20 07:13:59;;;;;;;85.72;28.33;;;;;;;;;;5096433;28;20115;-93
2021/12/20 07:16:31;;;;;;;88.05;27.10;;;;;;;;;;5096479;28;20036;-91
2021/12/20 07:18:58;;;;;;;82.93;25.52;;;;;;;;;;5096531;28;20035;-90
2021/12/20 07:21:25;;;;;;;73.47;25.77;;;;;;;;;;5096387;28;20035;-91
2021/12/20 07:23:51;;;;;;;78.03;26.63;;;;;;;;;;5096151;28;20028;-92
2021/12/20 07:26:18;;;;;;;98.18;27.92;;;;;;;;;;5096285;28;20115;-90
2021/12/20 07:28:44;;;;;;;92.32;27.88;;;;;;;;;;5096074;28;20028;-91
2021/12/20 07:31:11;;;;;;;76.50;26.90;;;;;;;;;;5096246;28;20032;-92
2021/12/20 07:33:38;;;;;;;85.28;30.52;;;;;;;;;;5096090;28;20109;-91
2021/12/20 07:36:04;;;;;;;80.50;29.55;;;;;;;;;;5095951;28;20043;-91
2021/12/20 07:38:31;;;;;;;93.13;32.90;;;;;;;;;;5096010;28;20032;-90
2021/12/20 07:40:57;;;;;;;86.90;29.58;;;;;;;;;;5096021;28;20371;-92
2021/12/20 07:43:24;;;;;;;84.95;28.77;;;;;;;;;;5095745;28;20035;-93
2021/12/20 07:45:50;;;;;;;84.50;27.70;;;;;;;;;;5080903;28;20431;-93
2021/12/20 07:48:17;;;;;;;71.43;27.63;;;;;;;;;;5075763;28;20028;-92
2021/12/20 07:50:44;;;;;;;84.57;27.33;;;;;;;;;;5075527;28;20064;-91
2021/12/20 07:53:11;;;;;;;81.95;30.20;;;;;;;;;;5075401;28;20060;-91
2021/12/20 07:55:37;;;;;;;90.78;28.52;;;;;;;;;;5075455;28;20059;-91
2021/12/20 07:58:04;;;;;;;77.85;28.83;;;;;;;;;;5075613;28;20535;-91
2021/12/20 08:00:32;;;;;;;81.35;28.25;;;;;;;;;;5075477;28;20032;-89
2021/12/20 08:02:58;;;;;;;83.30;26.55;;;;;;;;;;5075580;28;20029;-91
2021/12/20 08:05:25;;;;;;;75.38;26.05;;;;;;;;;;5075268;28;20502;-91
2021/12/20 08:07:52;;;;;;;72.13;24.75;;;;;;;;;;5075140;28;20044;-93
2021/12/20 08:10:19;;;;;;;84.88;25.63;;;;;;;;;;5075052;28;20047;-93
2021/12/20 08:12:46;;;;;;;74.00;26.20;;;;;;;;;;5075033;28;20040;-91
2021/12/20 08:15:13;;;;;;;74.68;24.45;;;;;;;;;;5075142;28;20031;-91
2021/12/20 08:17:40;;;;;;;78.68;24.75;;;;;;;;;;5075139;28;20043;-90
2021/12/20 08:20:07;;;;;;;64.50;24.75;;;;;;;;;;5074924;28;20479;-91
2021/12/20 08:22:34;;;;;;;67.45;26.15;;;;;;;;;;5074934;28;20115;-90
2021/12/20 08:25:00;;;;;;;74.93;26.52;;;;;;;;;;5074767;28;20082;-90
2021/12/20 08:27:26;;;;;;;71.05;25.38;;;;;;;;;;5074707;28;20039;-91
2021/12/20 08:29:53;;;;;;;69.07;26.58;;;;;;;;;;5074977;28;20086;-91
2021/12/20 08:32:19;;;;;;;74.60;26.05;;;;;;;;;;5074862;28;20119;-92
2021/12/20 08:34:46;;;;;;;76.25;28.90;;;;;;;;;;5074190;28;20561;-92
2021/12/20 08:37:12;;;;;;;75.68;27.23;;;;;;;;;;5074700;28;20024;-91
2021/12/20 08:39:38;;;;;;;69.50;25.52;;;;;;;;;;5074658;28;20061;-91
2021/12/20 08:42:05;;;;;;;65.10;22.67;;;;;;;;;;5074678;28;20032;-89
2021/12/20 08:44:33;;;;;;;54.80;20.75;;;;;;;;;;5074355;28;20060;-91
2021/12/20 08:46:59;;;;;;;75.53;21.45;;;;;;;;;;5074477;28;20470;-92
2021/12/20 08:49:26;;;;;;;64.47;21.70;;;;;;;;;;5075601;28;20062;-92
2021/12/20 08:51:54;;;;;;;59.13;20.90;;;;;;;;;;5074259;28;20119;-92
2021/12/20 08:54:23;;;;;;;47.67;20.38;;;;;;;;;;5074571;28;20029;-91
2021/12/20 08:56:49;;;;;;;56.72;19.58;;;;;;;;;;5074197;28;20162;-90
2021/12/20 08:59:16;;;;;;;67.35;21.77;;;;;;;;;;5074101;28;20033;-91
2021/12/20 09:01:42;;;;;;;82.43;24.35;;;;;;;;;;5074119;28;20040;-91
2021/12/20 09:04:09;;;;;;;67.88;24.15;;;;;;;;;;5073987;28;20040;-91
2021/12/20 09:06:39;;;;;;;74.05;25.55;;;;;;;;;;5074044;28;20032;-92
2021/12/20 09:09:06;;;;;;;64.00;21.38;;;;;;;;;;5074087;28;20090;-90
2021/12/20 09:11:33;;;;;;;71.47;21.20;;;;;;;;;;5073662;28;20097;-93
2021/12/20 09:14:09;;;;;;;68.55;22.30;;;;;;;;;;5074042;28;20107;-91
2021/12/20 09:16:35;;;;;;;72.93;23.70;;;;;;;;;;5074390;28;20024;-92
2021/12/20 09:19:02;;;;;;;65.68;23.67;;;;;;;;;;5074719;28;20397;-92
2021/12/20 09:21:29;;;;;;;74.82;25.48;;;;;;;;;;5074249;28;20036;-91
2021/12/20 09:23:56;;;;;;;77.82;27.25;;;;;;;;;;5073659;28;20029;-91
2021/12/20 09:26:23;;;;;;;79.15;25.77;;;;;;;;;;5073665;28;20053;-90
2021/12/20 09:28:49;;;;;;;73.93;24.27;;;;;;;;;;5073513;28;20040;-91
2021/12/20 09:31:16;;;;;;;78.80;22.95;;;;;;;;;;5073693;28;20032;-91
2021/12/20 09:33:45;;;;;;;70.97;23.85;;;;;;;;;;5073674;28;20110;-90
2021/12/20 09:36:11;;;;;;;75.13;23.02;;;;;;;;;;5073634;28;20039;-90
2021/12/20 09:38:39;;;;;;;62.78;23.20;;;;;;;;;;5073600;28;20028;-92
2021/12/20 09:43:39;;;;;;;66.70;21.85;;;;;;;;;;5074566;28;20099;-92
2021/12/20 09:46:05;;;;;;;57.38;18.75;;;;;;;;;;5072479;28;20446;-91
2021/12/20 09:48:34;;;;;;;58.65;19.20;;;;;;;;;;5073462;28;20063;-90
2021/12/20 09:51:02;;;;;;;68.82;20.13;;;;;;;;;;5073455;28;20033;-89
2021/12/20 09:53:28;;;;;;;62.95;19.77;;;;;;;;;;5073489;28;20037;-91
2021/12/20 09:55:54;;;;;;;57.00;19.02;;;;;;;;;;5073396;28;20528;-90
2021/12/20 09:58:22;;;;;;;55.40;18.08;;;;;;;;;;5073338;28;20036;-91
2021/12/20 10:00:49;;;;;;;67.15;18.60;;;;;;;;;;5073273;28;20051;-92
2021/12/20 10:03:19;;;;;;;71.20;20.35;;;;;;;;;;5056946;28;20175;-90
2021/12/20 10:05:46;;;;;;;67.28;20.25;;;;;;;;;;5073411;28;20032;-90
2021/12/20 10:08:15;;;;;;;55.90;19.77;;;;;;;;;;5073228;28;20399;-90
2021/12/20 10:10:46;;;;;;;56.72;21.83;;;;;;;;;;5073198;28;20082;-91
2021/12/20 10:13:24;;;;;;;55.15;21.63;;;;;;;;;;5072996;28;20507;-90
2021/12/20 10:15:51;;;;;;;65.35;22.40;;;;;;;;;;5073308;28;20471;-91
2021/12/20 10:18:18;;;;;;;63.80;23.00;;;;;;;;;;5073215;28;20036;-90
2021/12/20 10:20:54;;;;;;;66.72;22.35;;;;;;;;;;5073001;28;20498;-91
2021/12/20 10:23:28;;;;;;;72.80;25.23;;;;;;;;;;5073063;28;20479;-90
2021/12/20 10:26:13;;;;;;;69.68;24.50;;;;;;;;;;5073317;28;20033;-90
2021/12/20 10:28:40;;;;;;;69.25;23.70;;;;;;;;;;5074362;28;20116;-91
2021/12/20 10:31:12;;;;;;;69.20;23.92;;;;;;;;;;5073091;28;20044;-92
2021/12/20 10:33:39;;;;;;;70.68;24.00;;;;;;;;;;5073094;28;20040;-91
2021/12/20 10:36:13;;;;;;;69.68;25.00;;;;;;;;;;5073001;28;20024;-91
2021/12/20 10:38:43;;;;;;;67.55;26.58;;;;;;;;;;5073091;28;20037;-90
2021/12/20 10:41:18;;;;;;;62.97;28.88;;;;;;;;;;5073039;28;20124;-92
2021/12/20 10:43:51;;;;;;;76.97;30.63;;;;;;;;;;5072925;28;20040;-90
2021/12/20 10:46:19;;;;;;;76.20;29.63;;;;;;;;;;5094616;28;20134;-91
2021/12/20 10:48:47;;;;;;;79.70;31.88;;;;;;;;;;5113293;28;20482;-91
2021/12/20 10:51:21;;;;;;;81.97;34.10;;;;;;;;;;5113367;28;20051;-91
2021/12/20 10:53:54;;;;;;;80.93;30.73;;;;;;;;;;5113108;28;20372;-92
2021/12/20 10:56:21;;;;;;;72.53;28.40;;;;;;;;;;5113301;28;20028;-91
2021/12/20 10:58:47;;;;;;;70.95;26.50;;;;;;;;;;5116188;28;20032;-91
2021/12/20 11:04:08;;;;;;;56.92;24.75;;;;;;;;;;5118336;28;20085;-91
2021/12/20 11:09:22;;;;;;;67.22;24.42;;;;;;;;;;5118507;28;20039;-91
2021/12/20 11:11:52;;;;;;;65.65;24.85;;;;;;;;;;5117000;28;20037;-92
2021/12/20 11:14:21;;;;;;;68.63;25.15;;;;;;;;;;5117025;28;20039;-91
2021/12/20 11:16:49;;;;;;;50.40;23.23;;;;;;;;;;5117004;28;20032;-92
2021/12/20 11:19:16;;;;;;;48.85;18.20;;;;;;;;;;5116767;28;20074;-91
2021/12/20 11:21:46;;;;;;;40.75;13.68;;;;;;;;;;5116739;28;20034;-92
2021/12/20 11:24:14;;;;;;;35.95;15.82;;;;;;;;;;5116650;28;20166;-91
2021/12/20 11:26:41;;;;;;;31.98;14.27;;;;;;;;;;5116675;28;20039;-91
2021/12/20 11:29:09;;;;;;;34.92;14.52;;;;;;;;;;5116466;28;20035;-91
2021/12/20 11:31:37;;;;;;;39.45;13.85;;;;;;;;;;5116553;28;20045;-91
2021/12/20 11:34:04;;;;;;;38.75;13.52;;;;;;;;;;5116471;28;20517;-92
2021/12/20 11:36:30;;;;;;;36.15;12.77;;;;;;;;;;5116316;28;20034;-91
2021/12/20 11:39:00;;;;;;;36.75;14.60;;;;;;;;;;5116465;28;20034;-91
2021/12/20 11:41:27;;;;;;;40.40;14.80;;;;;;;;;;5116529;28;20123;-92
2021/12/20 11:43:55;;;;;;;38.63;15.43;;;;;;;;;;5116238;28;20067;-91
2021/12/20 11:46:22;;;;;;;68.70;22.52;;;;;;;;;;5115941;28;20101;-92
2021/12/20 11:48:51;;;;;;;66.40;25.85;;;;;;;;;;5116027;28;20036;-92
2021/12/20 11:51:17;;;;;;;61.00;23.10;;;;;;;;;;5116071;28;20456;-92
2021/12/20 11:53:44;;;;;;;66.53;26.33;;;;;;;;;;5116182;28;20543;-91
2021/12/20 11:56:10;;;;;;;80.68;28.10;;;;;;;;;;5116085;28;20032;-91
2021/12/20 11:58:39;;;;;;;72.38;29.08;;;;;;;;;;5116000;28;20107;-92
2021/12/20 12:01:13;;;;;;;71.82;29.58;;;;;;;;;;5115909;28;20386;-92
2021/12/20 12:03:40;;;;;;;79.78;33.35;;;;;;;;;;5115854;28;20084;-91
2021/12/20 12:06:11;;;;;;;69.60;29.17;;;;;;;;;;5115892;28;20077;-92
2021/12/20 12:08:37;;;;;;;67.38;29.77;;;;;;;;;;5115552;28;20386;-91
2021/12/20 12:11:10;;;;;;;76.28;30.50;;;;;;;;;;5115151;28;20036;-92
2021/12/20 12:13:47;;;;;;;69.30;30.30;;;;;;;;;;5116097;28;20087;-91
2021/12/20 12:16:32;;;;;;;68.90;28.45;;;;;;;;;;5115638;28;20469;-91
2021/12/20 12:19:01;;;;;;;72.63;30.10;;;;;;;;;;5115735;28;20043;-92
2021/12/20 12:21:33;;;;;;;74.43;30.35;;;;;;;;;;5115471;28;20034;-90
2021/12/20 12:24:01;;;;;;;80.60;34.40;;;;;;;;;;5115457;28;20028;-92
2021/12/20 12:26:31;;;;;;;76.15;34.20;;;;;;;;;;5115524;28;20032;-92
2021/12/20 12:28:58;;;;;;;91.65;38.58;;;;;;;;;;5115327;28;20089;-92
2021/12/20 12:31:25;;;;;;;90.88;38.67;;;;;;;;;;5115446;28;20028;-93
2021/12/20 12:34:08;;;;;;;87.82;40.10;;;;;;;;;;5116732;28;20028;-92
2021/12/20 12:36:42;;;;;;;88.40;37.47;;;;;;;;;;5115265;28;20050;-91
2021/12/20 12:39:24;;;;;;;86.90;37.85;;;;;;;;;;5115254;28;20032;-91
2021/12/20 12:41:55;;;;;;;89.00;39.13;;;;;;;;;;5115223;28;20113;-91
2021/12/20 12:44:27;;;;;;;75.97;36.20;;;;;;;;;;5114774;28;20050;-90
2021/12/20 12:47:03;;;;;;;84.18;37.20;;;;;;;;;;5115113;28;20034;-90
2021/12/20 12:49:31;;;;;;;87.60;37.30;;;;;;;;;;5115003;28;20061;-91
2021/12/20 12:51:59;;;;;;;100.32;40.78;;;;;;;;;;5115043;28;20408;-90
2021/12/20 12:54:34;;;;;;;100.63;42.72;;;;;;;;;;5114837;28;20034;-92
2021/12/20 12:57:13;;;;;;;97.90;42.58;;;;;;;;;;5114999;28;20478;-92
2021/12/20 12:59:58;;;;;;;98.38;36.95;;;;;;;;;;5114921;28;20444;-91
2021/12/20 13:02:30;;;;;;;81.85;34.67;;;;;;;;;;5114698;28;20089;-91
2021/12/20 13:05:01;;;;;;;72.28;30.80;;;;;;;;;;5114491;28;20504;-91
2021/12/20 13:07:31;;;;;;;53.97;23.80;;;;;;;;;;5114491;28;20059;-92
2021/12/20 13:10:00;;;;;;;49.00;19.90;;;;;;;;;;5114520;28;20059;-92
2021/12/20 13:17:45;;;;;;;48.72;22.48;;;;;;;;;;5116016;28;20055;-90
2021/12/20 13:20:21;;;;;;;59.88;23.10;;;;;;;;;;5114162;28;20034;-92
2021/12/20 13:22:57;;;;;;;66.15;28.83;;;;;;;;;;5115414;28;20035;-91
2021/12/20 13:25:43;;;;;;;67.28;30.25;;;;;;;;;;5114461;28;20130;-90
2021/12/20 13:28:22;;;;;;;72.20;32.75;;;;;;;;;;5114161;28;20501;-91
2021/12/20 13:30:52;;;;;;;77.97;34.08;;;;;;;;;;5114251;28;20131;-92
2021/12/20 13:33:20;;;;;;;71.80;29.95;;;;;;;;;;5114416;28;20451;-92
2021/12/20 13:35:46;;;;;;;58.10;23.38;;;;;;;;;;5114326;28;20105;-91
2021/12/20 13:38:15;;;;;;;59.75;26.73;;;;;;;;;;5114271;28;20115;-91
2021/12/20 13:40:43;;;;;;;51.20;22.75;;;;;;;;;;5114048;28;20028;-92
2021/12/20 13:43:13;;;;;;;47.65;22.10;;;;;;;;;;5113928;28;20099;-91
2021/12/20 13:45:39;;;;;;;50.00;22.25;;;;;;;;;;5113869;28;20513;-91
2021/12/20 13:48:09;;;;;;;50.05;25.98;;;;;;;;;;5113979;28;20088;-92
2021/12/20 13:50:36;;;;;;;52.53;26.70;;;;;;;;;;5113950;28;20093;-92
2021/12/20 13:53:02;;;;;;;58.90;27.25;;;;;;;;;;5113763;28;20394;-91
2021/12/20 13:55:28;;;;;;;60.33;28.77;;;;;;;;;;5113874;28;20028;-90
2021/12/20 13:57:55;;;;;;;52.50;27.30;;;;;;;;;;5113869;28;20031;-91
2021/12/20 14:00:21;;;;;;;70.72;39.78;;;;;;;;;;5113828;28;20032;-90
2021/12/20 14:02:50;;;;;;;74.68;42.28;;;;;;;;;;5113935;28;20036;-92
2021/12/20 14:05:21;;;;;;;64.90;34.15;;;;;;;;;;5113589;28;20038;-93
2021/12/20 14:07:51;;;;;;;65.55;34.75;;;;;;;;;;5113664;28;20112;-91
2021/12/20 14:10:19;;;;;;;57.42;29.25;;;;;;;;;;5113706;28;20397;-91
2021/12/20 14:12:51;;;;;;;70.47;36.17;;;;;;;;;;5113702;28;20081;-90
2021/12/20 14:15:26;;;;;;;56.22;26.05;;;;;;;;;;5113968;28;20035;-91
2021/12/20 14:18:03;;;;;;;49.22;19.98;;;;;;;;;;5113834;28;20031;-92
2021/12/20 14:20:49;;;;;;;45.58;21.73;;;;;;;;;;5079983;28;20063;-91
2021/12/20 14:23:16;;;;;;;45.20;21.58;;;;;;;;;;5113609;28;20534;-92
2021/12/20 14:25:43;;;;;;;45.13;21.35;;;;;;;;;;5113742;28;20027;-92
2021/12/20 14:28:36;;;;;;;45.97;22.63;;;;;;;;;;5113746;28;20042;-91
2021/12/20 14:31:12;;;;;;;48.55;23.27;;;;;;;;;;5093846;28;20032;-91
2021/12/20 14:33:58;;;;;;;54.20;26.00;;;;;;;;;;5116332;28;20032;-91
2021/12/20 14:36:26;;;;;;;58.17;27.88;;;;;;;;;;5100745;28;20028;-91
2021/12/20 14:38:56;;;;;;;51.28;26.05;;;;;;;;;;5117705;28;20151;-91
2021/12/20 14:41:36;;;;;;;58.90;27.45;;;;;;;;;;5118527;28;20032;-91
2021/12/20 14:44:06;;;;;;;57.40;25.58;;;;;;;;;;5117375;28;20115;-93
2021/12/20 14:46:48;;;;;;;61.15;29.38;;;;;;;;;;5117539;28;20074;-91
2021/12/20 14:49:17;;;;;;;62.80;28.00;;;;;;;;;;5117491;28;20121;-92
2021/12/20 14:51:44;;;;;;;60.95;28.10;;;;;;;;;;5083799;28;20065;-92
2021/12/20 14:54:12;;;;;;;56.92;29.02;;;;;;;;;;5117240;28;20035;-91
2021/12/20 14:56:40;;;;;;;61.03;28.27;;;;;;;;;;5117173;28;20488;-92
2021/12/20 14:59:07;;;;;;;57.38;26.80;;;;;;;;;;5117300;28;20028;-91
2021/12/20 15:01:33;;;;;;;55.72;27.55;;;;;;;;;;5117195;28;20543;-91
2021/12/20 15:03:59;;;;;;;50.88;24.88;;;;;;;;;;5117370;28;20126;-91
2021/12/20 15:06:26;;;;;;;46.40;23.98;;;;;;;;;;5117042;28;20475;-90
2021/12/20 15:08:52;;;;;;;42.65;19.00;;;;;;;;;;5117008;28;20059;-91
2021/12/20 15:11:19;;;;;;;40.40;19.58;;;;;;;;;;5117003;28;20035;-91